createdAt,value
2023-04-21T00:00:54.725Z,0
2023-04-21T00:01:54.723Z,0
2023-04-21T00:02:54.958Z,0
2023-04-21T00:03:54.839Z,0
2023-04-21T00:04:54.810Z,0
2023-04-21T00:05:54.831Z,0
2023-04-21T00:06:54.745Z,0
2023-04-21T00:07:54.732Z,0
2023-04-21T00:08:54.730Z,0
2023-04-21T00:09:54.730Z,0
2023-04-21T00:10:54.738Z,0
2023-04-21T00:11:54.740Z,0
2023-04-21T00:12:54.745Z,0
2023-04-21T00:13:54.743Z,0
2023-04-21T00:14:54.753Z,0
2023-04-21T00:15:54.795Z,0
2023-04-21T00:16:54.735Z,0
2023-04-21T00:17:54.784Z,0
2023-04-21T00:18:54.736Z,0
2023-04-21T00:19:54.741Z,0
2023-04-21T00:20:54.769Z,0
2023-04-21T00:21:54.739Z,0
2023-04-21T00:22:54.749Z,0
2023-04-21T00:23:54.744Z,0
2023-04-21T00:24:54.743Z,0
2023-04-21T00:25:54.743Z,0
2023-04-21T00:26:54.748Z,0
2023-04-21T00:27:54.755Z,0
2023-04-21T00:28:54.752Z,0
2023-04-21T00:29:54.752Z,0
2023-04-21T00:30:54.753Z,0
2023-04-21T00:31:54.823Z,0
2023-04-21T00:32:54.775Z,0
2023-04-21T00:33:54.750Z,0
2023-04-21T00:34:54.755Z,0
2023-04-21T00:35:54.757Z,0
2023-04-21T00:36:54.778Z,0
2023-04-21T00:37:54.755Z,0
2023-04-21T00:38:54.754Z,0
2023-04-21T00:39:54.771Z,0
2023-04-21T00:40:54.760Z,0
2023-04-21T00:41:54.762Z,0
2023-04-21T00:42:54.765Z,0
2023-04-21T00:43:54.768Z,0
2023-04-21T00:44:54.770Z,0
2023-04-21T00:45:54.760Z,0
2023-04-21T00:46:54.829Z,0
2023-04-21T00:47:54.818Z,0
2023-04-21T00:48:54.769Z,0
2023-04-21T00:49:54.765Z,0
2023-04-21T00:50:54.773Z,0
2023-04-21T00:51:54.768Z,0
2023-04-21T00:52:54.786Z,0
2023-04-21T00:53:54.765Z,0
2023-04-21T00:54:54.780Z,0
2023-04-21T00:55:54.773Z,0
2023-04-21T00:56:54.770Z,0
2023-04-21T00:57:54.773Z,0
2023-04-21T00:58:54.771Z,0
2023-04-21T00:59:54.769Z,0
2023-04-21T01:00:54.789Z,0
2023-04-21T01:01:54.777Z,0
2023-04-21T01:02:54.856Z,0
2023-04-21T01:03:54.813Z,0
2023-04-21T01:04:54.779Z,0
2023-04-21T01:05:54.786Z,0
2023-04-21T01:06:54.787Z,0
2023-04-21T01:07:54.776Z,0
2023-04-21T01:08:54.823Z,0
2023-04-21T01:09:54.780Z,0
2023-04-21T01:10:54.778Z,0
2023-04-21T01:11:54.781Z,0
2023-04-21T01:12:54.781Z,0
2023-04-21T01:13:54.778Z,0
2023-04-21T01:14:54.791Z,0
2023-04-21T01:15:54.781Z,0
2023-04-21T01:16:54.860Z,0
2023-04-21T01:17:54.801Z,0
2023-04-21T01:18:54.787Z,0
2023-04-21T01:19:54.785Z,0
2023-04-21T01:20:54.782Z,0
2023-04-21T01:21:54.797Z,0
2023-04-21T01:22:54.794Z,0
2023-04-21T01:23:54.788Z,0
2023-04-21T01:24:54.814Z,0
2023-04-21T01:25:54.786Z,0
2023-04-21T01:26:54.790Z,0
2023-04-21T01:27:54.797Z,0
2023-04-21T01:28:54.786Z,0
2023-04-21T01:29:54.791Z,0
2023-04-21T01:30:54.835Z,0
2023-04-21T01:31:54.810Z,0
2023-04-21T01:32:54.817Z,0
2023-04-21T01:33:54.793Z,0
2023-04-21T01:34:54.794Z,0
2023-04-21T01:35:54.789Z,0
2023-04-21T01:36:54.791Z,0
2023-04-21T01:37:54.795Z,0
2023-04-21T01:38:54.792Z,0
2023-04-21T01:39:54.829Z,0
2023-04-21T01:40:54.815Z,0
2023-04-21T01:41:54.796Z,0
2023-04-21T01:42:54.797Z,0
2023-04-21T01:43:54.793Z,0
2023-04-21T01:44:54.792Z,0
2023-04-21T01:45:54.803Z,0
2023-04-21T01:46:54.797Z,0
2023-04-21T01:47:54.833Z,0
2023-04-21T01:48:54.796Z,0
2023-04-21T01:49:54.799Z,0
2023-04-21T01:50:54.796Z,0
2023-04-21T01:51:54.795Z,0
2023-04-21T01:52:54.801Z,0
2023-04-21T01:53:54.796Z,0
2023-04-21T01:54:54.799Z,0
2023-04-21T01:55:54.806Z,0
2023-04-21T01:56:54.869Z,0
2023-04-21T01:57:54.814Z,0
2023-04-21T01:58:54.807Z,0
2023-04-21T01:59:54.807Z,0
2023-04-21T02:00:54.813Z,0
2023-04-21T02:01:54.870Z,0
2023-04-21T02:02:54.963Z,0
2023-04-21T02:03:55.026Z,0
2023-04-21T02:04:54.809Z,0
2023-04-21T02:05:54.849Z,0
2023-04-21T02:06:54.810Z,0
2023-04-21T02:07:54.815Z,0
2023-04-21T02:08:54.808Z,0
2023-04-21T02:09:54.824Z,0
2023-04-21T02:10:54.811Z,0
2023-04-21T02:11:54.806Z,0
2023-04-21T02:12:54.842Z,0
2023-04-21T02:13:54.809Z,0
2023-04-21T02:14:54.811Z,0
2023-04-21T02:16:02.675Z,0
2023-04-21T02:16:54.810Z,0
2023-04-21T02:17:54.825Z,0
2023-04-21T02:18:54.812Z,0
2023-04-21T02:19:54.829Z,0
2023-04-21T02:20:54.813Z,0
2023-04-21T02:21:54.819Z,0
2023-04-21T02:22:54.815Z,0
2023-04-21T02:23:54.817Z,0
2023-04-21T02:24:54.815Z,0
2023-04-21T02:25:54.818Z,0
2023-04-21T02:26:54.815Z,0
2023-04-21T02:27:54.817Z,0
2023-04-21T02:28:54.834Z,0
2023-04-21T02:29:54.819Z,0
2023-04-21T02:30:54.814Z,0
2023-04-21T02:32:01.088Z,0
2023-04-21T02:32:54.901Z,0
2023-04-21T02:33:54.871Z,0
2023-04-21T02:34:54.819Z,0
2023-04-21T02:35:54.813Z,0
2023-04-21T02:36:54.822Z,0
2023-04-21T02:37:54.815Z,0
2023-04-21T02:38:54.812Z,0
2023-04-21T02:39:54.823Z,0
2023-04-21T02:40:54.828Z,0
2023-04-21T02:41:54.818Z,0
2023-04-21T02:42:54.812Z,0
2023-04-21T02:43:54.814Z,0
2023-04-21T02:44:54.950Z,0
2023-04-21T02:45:54.818Z,0
2023-04-21T02:46:54.821Z,0
2023-04-21T02:47:54.827Z,0
2023-04-21T02:48:54.813Z,0
2023-04-21T02:49:54.808Z,42
2023-04-21T02:50:54.814Z,0
2023-04-21T02:51:54.815Z,0
2023-04-21T02:52:54.811Z,0
2023-04-21T02:53:54.815Z,0
2023-04-21T02:54:54.828Z,0
2023-04-21T02:55:54.808Z,0
2023-04-21T02:56:54.813Z,0
2023-04-21T02:57:54.812Z,0
2023-04-21T02:58:54.812Z,0
2023-04-21T02:59:54.812Z,0
2023-04-21T03:00:54.856Z,0
2023-04-21T03:01:54.814Z,0
2023-04-21T03:02:54.921Z,0
2023-04-21T03:03:54.904Z,0
2023-04-21T03:04:54.813Z,0
2023-04-21T03:05:54.812Z,0
2023-04-21T03:06:54.813Z,0
2023-04-21T03:07:54.816Z,0
2023-04-21T03:08:54.818Z,0
2023-04-21T03:09:54.811Z,0
2023-04-21T03:10:54.813Z,0
2023-04-21T03:11:54.815Z,0
2023-04-21T03:12:54.819Z,0
2023-04-21T03:13:54.809Z,0
2023-04-21T03:14:54.811Z,0
2023-04-21T03:15:54.822Z,0
2023-04-21T03:16:54.938Z,0
2023-04-21T03:17:54.884Z,0
2023-04-21T03:18:54.807Z,0
2023-04-21T03:19:54.815Z,0
2023-04-21T03:20:54.812Z,0
2023-04-21T03:21:54.819Z,0
2023-04-21T03:22:54.817Z,0
2023-04-21T03:23:54.815Z,0
2023-04-21T03:24:54.814Z,0
2023-04-21T03:25:54.815Z,0
2023-04-21T03:26:54.821Z,0
2023-04-21T03:27:54.820Z,0
2023-04-21T03:28:54.819Z,0
2023-04-21T03:29:54.817Z,0
2023-04-21T03:30:54.819Z,0
2023-04-21T03:31:54.852Z,0
2023-04-21T03:32:54.874Z,0
2023-04-21T03:33:54.818Z,0
2023-04-21T03:34:54.830Z,0
2023-04-21T03:35:54.822Z,0
2023-04-21T03:36:54.821Z,0
2023-04-21T03:37:54.824Z,0
2023-04-21T03:38:55.453Z,0
2023-04-21T03:39:54.819Z,0
2023-04-21T03:40:54.825Z,0
2023-04-21T03:41:54.826Z,0
2023-04-21T03:42:54.819Z,0
2023-04-21T03:43:54.833Z,0
2023-04-21T03:44:54.822Z,0
2023-04-21T03:45:54.875Z,0
2023-04-21T03:46:54.832Z,0
2023-04-21T03:47:54.836Z,0
2023-04-21T03:48:55.088Z,0
2023-04-21T03:49:54.841Z,1
2023-04-21T03:50:54.826Z,1
2023-04-21T03:51:54.826Z,1
2023-04-21T03:52:54.825Z,1
2023-04-21T03:53:54.822Z,1
2023-04-21T03:54:54.825Z,2
2023-04-21T03:55:54.835Z,2
2023-04-21T03:56:54.831Z,2
2023-04-21T03:57:54.826Z,2
2023-04-21T03:58:54.831Z,2
2023-04-21T03:59:54.838Z,5
2023-04-21T04:00:54.828Z,5
2023-04-21T04:01:54.830Z,5
2023-04-21T04:02:55.001Z,5
2023-04-21T04:03:54.969Z,5
2023-04-21T04:04:54.966Z,12
2023-04-21T04:05:54.829Z,12
2023-04-21T04:06:54.833Z,12
2023-04-21T04:07:54.830Z,12
2023-04-21T04:08:54.830Z,12
2023-04-21T04:09:54.841Z,24
2023-04-21T04:10:54.831Z,24
2023-04-21T04:11:54.835Z,24
2023-04-21T04:12:54.835Z,24
2023-04-21T04:13:54.826Z,24
2023-04-21T04:14:54.838Z,40
2023-04-21T04:15:54.867Z,40
2023-04-21T04:16:54.832Z,40
2023-04-21T04:17:54.857Z,40
2023-04-21T04:18:54.836Z,40
2023-04-21T04:19:54.828Z,51
2023-04-21T04:20:54.853Z,51
2023-04-21T04:21:54.842Z,51
2023-04-21T04:22:54.833Z,51
2023-04-21T04:23:54.831Z,106
2023-04-21T04:24:54.830Z,68
2023-04-21T04:25:54.829Z,68
2023-04-21T04:26:54.835Z,68
2023-04-21T04:27:54.829Z,68
2023-04-21T04:28:54.835Z,68
2023-04-21T04:29:54.833Z,96
2023-04-21T04:30:54.851Z,96
2023-04-21T04:31:54.835Z,96
2023-04-21T04:32:54.837Z,96
2023-04-21T04:33:55.719Z,96
2023-04-21T04:34:54.834Z,128
2023-04-21T04:35:54.841Z,128
2023-04-21T04:36:54.870Z,128
2023-04-21T04:37:54.833Z,128
2023-04-21T04:38:54.835Z,128
2023-04-21T04:39:54.836Z,164
2023-04-21T04:40:54.846Z,164
2023-04-21T04:41:54.838Z,164
2023-04-21T04:42:54.839Z,164
2023-04-21T04:43:54.838Z,164
2023-04-21T04:44:54.837Z,202
2023-04-21T04:45:54.836Z,202
2023-04-21T04:46:54.911Z,202
2023-04-21T04:47:54.878Z,202
2023-04-21T04:48:54.836Z,202
2023-04-21T04:49:54.839Z,243
2023-04-21T04:50:54.840Z,243
2023-04-21T04:51:54.839Z,243
2023-04-21T04:52:54.870Z,243
2023-04-21T04:53:54.851Z,243
2023-04-21T04:54:54.850Z,289
2023-04-21T04:55:54.837Z,289
2023-04-21T04:56:54.839Z,289
2023-04-21T04:57:54.851Z,289
2023-04-21T04:58:54.865Z,289
2023-04-21T04:59:54.842Z,340
2023-04-21T05:00:54.869Z,340
2023-04-21T05:01:54.894Z,340
2023-04-21T05:02:55.073Z,340
2023-04-21T05:03:55.009Z,340
2023-04-21T05:04:55.052Z,401
2023-04-21T05:05:54.839Z,401
2023-04-21T05:06:54.842Z,401
2023-04-21T05:07:54.843Z,401
2023-04-21T05:08:54.987Z,401
2023-04-21T05:09:54.842Z,457
2023-04-21T05:10:54.845Z,457
2023-04-21T05:11:54.852Z,457
2023-04-21T05:12:54.838Z,457
2023-04-21T05:13:54.840Z,457
2023-04-21T05:14:54.842Z,520
2023-04-21T05:15:54.847Z,520
2023-04-21T05:16:54.904Z,520
2023-04-21T05:17:54.862Z,520
2023-04-21T05:18:54.846Z,520
2023-04-21T05:19:54.850Z,641
2023-04-21T05:20:54.857Z,641
2023-04-21T05:21:54.850Z,641
2023-04-21T05:22:54.860Z,641
2023-04-21T05:23:54.856Z,641
2023-04-21T05:24:54.877Z,772
2023-04-21T05:25:54.855Z,772
2023-04-21T05:26:54.856Z,772
2023-04-21T05:27:54.857Z,772
2023-04-21T05:28:54.853Z,772
2023-04-21T05:29:54.858Z,839
2023-04-21T05:30:54.858Z,839
2023-04-21T05:31:54.875Z,839
2023-04-21T05:32:54.894Z,839
2023-04-21T05:33:54.858Z,839
2023-04-21T05:34:54.864Z,980
2023-04-21T05:35:54.871Z,980
2023-04-21T05:36:54.861Z,980
2023-04-21T05:37:54.866Z,981
2023-04-21T05:38:54.865Z,981
2023-04-21T05:39:54.861Z,981
2023-04-21T05:40:54.884Z,981
2023-04-21T05:41:54.866Z,981
2023-04-21T05:42:54.860Z,1010
2023-04-21T05:43:54.870Z,1072
2023-04-21T05:44:54.872Z,1033
2023-04-21T05:45:54.901Z,1033
2023-04-21T05:46:54.876Z,1033
2023-04-21T05:47:54.979Z,1033
2023-04-21T05:48:54.871Z,1033
2023-04-21T05:49:54.871Z,1118
2023-04-21T05:50:54.874Z,1118
2023-04-21T05:51:54.869Z,1118
2023-04-21T05:52:54.876Z,1118
2023-04-21T05:53:54.874Z,1118
2023-04-21T05:54:54.872Z,1239
2023-04-21T05:55:54.869Z,1239
2023-04-21T05:56:54.893Z,1239
2023-04-21T05:57:54.870Z,1239
2023-04-21T05:58:54.881Z,1239
2023-04-21T05:59:54.871Z,1346
2023-04-21T06:00:54.870Z,1346
2023-04-21T06:01:54.867Z,1346
2023-04-21T06:02:54.970Z,1346
2023-04-21T06:03:54.970Z,1346
2023-04-21T06:04:54.999Z,1511
2023-04-21T06:05:54.963Z,1511
2023-04-21T06:06:54.871Z,1511
2023-04-21T06:07:54.871Z,1511
2023-04-21T06:08:54.879Z,1511
2023-04-21T06:09:54.877Z,1653
2023-04-21T06:10:54.877Z,1653
2023-04-21T06:11:54.868Z,1653
2023-04-21T06:12:54.908Z,1653
2023-04-21T06:13:54.872Z,1653
2023-04-21T06:14:54.879Z,2081
2023-04-21T06:15:54.885Z,2081
2023-04-21T06:16:54.874Z,2081
2023-04-21T06:17:54.887Z,2081
2023-04-21T06:18:54.883Z,2081
2023-04-21T06:19:54.879Z,2806
2023-04-21T06:20:54.894Z,2806
2023-04-21T06:21:54.881Z,2806
2023-04-21T06:22:54.879Z,2806
2023-04-21T06:23:54.882Z,2806
2023-04-21T06:24:54.883Z,3553
2023-04-21T06:25:54.883Z,3553
2023-04-21T06:26:54.889Z,3553
2023-04-21T06:27:54.884Z,3553
2023-04-21T06:28:54.922Z,3553
2023-04-21T06:29:54.888Z,4165
2023-04-21T06:30:54.890Z,4165
2023-04-21T06:31:54.940Z,4165
2023-04-21T06:32:54.961Z,4165
2023-04-21T06:33:54.897Z,4165
2023-04-21T06:34:54.896Z,4696
2023-04-21T06:35:54.900Z,4696
2023-04-21T06:36:54.901Z,4696
2023-04-21T06:37:54.905Z,4696
2023-04-21T06:38:54.907Z,4696
2023-04-21T06:39:54.904Z,4888
2023-04-21T06:40:54.906Z,4888
2023-04-21T06:41:54.905Z,5319
2023-04-21T06:42:54.916Z,5319
2023-04-21T06:43:54.911Z,5319
2023-04-21T06:44:54.938Z,5319
2023-04-21T06:45:54.926Z,5319
2023-04-21T06:46:54.958Z,6820
2023-04-21T06:47:54.930Z,7019
2023-04-21T06:48:54.919Z,7062
2023-04-21T06:49:54.922Z,6233
2023-04-21T06:50:54.934Z,6046
2023-04-21T06:51:54.926Z,6046
2023-04-21T06:52:54.929Z,6046
2023-04-21T06:53:54.930Z,6046
2023-04-21T06:54:54.934Z,6667
2023-04-21T06:55:54.945Z,7068
2023-04-21T06:56:54.932Z,7133
2023-04-21T06:57:54.936Z,7068
2023-04-21T06:58:54.935Z,6386
2023-04-21T06:59:54.948Z,6389
2023-04-21T07:00:54.994Z,5756
2023-04-21T07:01:54.938Z,5756
2023-04-21T07:02:55.037Z,3701
2023-04-21T07:03:55.046Z,3701
2023-04-21T07:04:54.961Z,3701
2023-04-21T07:05:54.952Z,3701
2023-04-21T07:06:54.950Z,4246
2023-04-21T07:07:54.949Z,4326
2023-04-21T07:08:54.955Z,3916
2023-04-21T07:09:54.954Z,3916
2023-04-21T07:10:54.957Z,3916
2023-04-21T07:11:54.957Z,3916
2023-04-21T07:12:54.952Z,3916
2023-04-21T07:13:54.956Z,5120
2023-04-21T07:14:54.989Z,5036
2023-04-21T07:15:54.960Z,5596
2023-04-21T07:16:55.079Z,6412
2023-04-21T07:17:54.999Z,6599
2023-04-21T07:18:56.764Z,7005
2023-04-21T07:19:54.965Z,5261
2023-04-21T07:20:54.969Z,5129
2023-04-21T07:21:54.971Z,8260
2023-04-21T07:22:54.974Z,8111
2023-04-21T07:23:54.973Z,8111
2023-04-21T07:24:54.983Z,7221
2023-04-21T07:25:54.983Z,8730
2023-04-21T07:26:54.973Z,9074
2023-04-21T07:27:54.983Z,9076
2023-04-21T07:28:54.980Z,8913
2023-04-21T07:29:54.990Z,6555
2023-04-21T07:30:55.058Z,6555
2023-04-21T07:31:54.991Z,6555
2023-04-21T07:32:55.069Z,6321
2023-04-21T07:33:54.995Z,6013
2023-04-21T07:34:54.989Z,4280
2023-04-21T07:35:54.988Z,3912
2023-04-21T07:36:54.993Z,3819
2023-04-21T07:37:55.043Z,3866
2023-04-21T07:38:54.989Z,5276
2023-04-21T07:39:54.995Z,5782
2023-04-21T07:40:55.009Z,4237
2023-04-21T07:41:54.988Z,4161
2023-04-21T07:42:54.993Z,4720
2023-04-21T07:43:54.995Z,4374
2023-04-21T07:44:55.002Z,4374
2023-04-21T07:45:55.028Z,4374
2023-04-21T07:46:54.995Z,4374
2023-04-21T07:47:55.078Z,5272
2023-04-21T07:48:55.027Z,5272
2023-04-21T07:49:54.998Z,5272
2023-04-21T07:50:55.001Z,7930
2023-04-21T07:51:54.998Z,5979
2023-04-21T07:52:55.003Z,4641
2023-04-21T07:53:54.998Z,4641
2023-04-21T07:54:54.998Z,7251
2023-04-21T07:55:55.002Z,7094
2023-04-21T07:56:55.012Z,6291
2023-04-21T07:57:55.006Z,7093
2023-04-21T07:58:55.017Z,7175
2023-04-21T07:59:55.010Z,6928
2023-04-21T08:00:55.011Z,7006
2023-04-21T08:01:55.013Z,7076
2023-04-21T08:02:55.139Z,6960
2023-04-21T08:03:55.046Z,6981
2023-04-21T08:04:55.082Z,6856
2023-04-21T08:05:55.284Z,6730
2023-04-21T08:06:55.297Z,6693
2023-04-21T08:07:55.027Z,6693
2023-04-21T08:08:55.045Z,6693
2023-04-21T08:09:55.021Z,7097
2023-04-21T08:10:55.023Z,7143
2023-04-21T08:11:55.277Z,7166
2023-04-21T08:12:55.039Z,7170
2023-04-21T08:13:55.023Z,7186
2023-04-21T08:14:55.027Z,7112
2023-04-21T08:15:55.078Z,7170
2023-04-21T08:16:56.885Z,7170
2023-04-21T08:17:55.088Z,7170
2023-04-21T08:18:55.032Z,7186
2023-04-21T08:19:55.082Z,7291
2023-04-21T08:20:55.094Z,7253
2023-04-21T08:21:55.045Z,6811
2023-04-21T08:22:55.083Z,6982
2023-04-21T08:23:55.064Z,4682
2023-04-21T08:24:55.035Z,5883
2023-04-21T08:25:55.247Z,5480
2023-04-21T08:26:55.073Z,5010
2023-04-21T08:27:55.047Z,7221
2023-04-21T08:28:55.034Z,6577
2023-04-21T08:29:55.041Z,7273
2023-04-21T08:30:55.064Z,7444
2023-04-21T08:31:55.061Z,6750
2023-04-21T08:32:55.084Z,6561
2023-04-21T08:34:01.572Z,7101
2023-04-21T08:34:55.047Z,6465
2023-04-21T08:36:02.792Z,5555
2023-04-21T08:36:55.092Z,5555
2023-04-21T08:37:55.067Z,4969
2023-04-21T08:38:55.055Z,4421
2023-04-21T08:39:55.063Z,4219
2023-04-21T08:40:55.049Z,4503
2023-04-21T08:41:55.058Z,4503
2023-04-21T08:42:55.693Z,5023
2023-04-21T08:43:55.057Z,5042
2023-04-21T08:44:55.056Z,6105
2023-04-21T08:45:55.074Z,6105
2023-04-21T08:46:55.056Z,6013
2023-04-21T08:47:55.079Z,6527
2023-04-21T08:48:55.520Z,6834
2023-04-21T08:49:55.063Z,6480
2023-04-21T08:50:55.070Z,5500
2023-04-21T08:51:55.069Z,4691
2023-04-21T08:52:55.096Z,4691
2023-04-21T08:53:55.068Z,4570
2023-04-21T08:54:55.066Z,4325
2023-04-21T08:56:03.553Z,4581
2023-04-21T08:56:58.976Z,4581
2023-04-21T08:57:55.068Z,4581
2023-04-21T08:58:55.069Z,4581
2023-04-21T08:59:55.069Z,4510
2023-04-21T09:00:55.115Z,4478
2023-04-21T09:01:55.072Z,3714
2023-04-21T09:03:00.541Z,3639
2023-04-21T09:03:55.275Z,3555
2023-04-21T09:04:55.723Z,3483
2023-04-21T09:05:55.462Z,4234
2023-04-21T09:06:55.090Z,3740
2023-04-21T09:07:55.086Z,3410
2023-04-21T09:08:55.113Z,3410
2023-04-21T09:09:55.104Z,3410
2023-04-21T09:10:55.345Z,3410
2023-04-21T09:11:55.085Z,3410
2023-04-21T09:12:55.088Z,3309
2023-04-21T09:13:55.090Z,3309
2023-04-21T09:14:55.095Z,3533
2023-04-21T09:15:55.102Z,3447
2023-04-21T09:16:55.111Z,3447
2023-04-21T09:17:55.161Z,3148
2023-04-21T09:18:55.092Z,3148
2023-04-21T09:19:55.099Z,3148
2023-04-21T09:20:55.094Z,3148
2023-04-21T09:21:55.105Z,3120
2023-04-21T09:22:55.106Z,3120
2023-04-21T09:23:55.102Z,3120
2023-04-21T09:24:55.168Z,3120
2023-04-21T09:25:55.102Z,3120
2023-04-21T09:26:55.104Z,2896
2023-04-21T09:27:55.113Z,2896
2023-04-21T09:28:55.113Z,2896
2023-04-21T09:29:55.107Z,2896
2023-04-21T09:30:55.154Z,2896
2023-04-21T09:31:55.111Z,2840
2023-04-21T09:32:55.154Z,2840
2023-04-21T09:33:58.249Z,2840
2023-04-21T09:34:55.119Z,2840
2023-04-21T09:35:55.120Z,2840
2023-04-21T09:36:55.120Z,2852
2023-04-21T09:37:55.125Z,2852
2023-04-21T09:39:12.798Z,2852
2023-04-21T09:40:04.642Z,2852
2023-04-21T09:40:55.217Z,2807
2023-04-21T09:41:55.124Z,2796
2023-04-21T09:42:55.131Z,2796
2023-04-21T09:43:55.130Z,2796
2023-04-21T09:45:06.087Z,2796
2023-04-21T09:45:55.165Z,2796
2023-04-21T09:46:55.236Z,2787
2023-04-21T09:47:55.214Z,2816
2023-04-21T09:48:55.134Z,2788
2023-04-21T09:49:55.134Z,2792
2023-04-21T09:52:10.072Z,2792
2023-04-21T09:52:55.138Z,2792
2023-04-21T09:53:55.136Z,2792
2023-04-21T09:54:55.144Z,2824
2023-04-21T09:55:55.143Z,2824
2023-04-21T09:56:55.169Z,2824
2023-04-21T09:57:55.146Z,2885
2023-04-21T09:58:55.140Z,2901
2023-04-21T09:59:55.156Z,2873
2023-04-21T10:00:55.147Z,2873
2023-04-21T10:01:55.159Z,2934
2023-04-21T10:02:55.221Z,2979
2023-04-21T10:03:55.313Z,2979
2023-04-21T10:04:55.359Z,2979
2023-04-21T10:05:55.173Z,2979
2023-04-21T10:06:55.149Z,3164
2023-04-21T10:07:55.151Z,3249
2023-04-21T10:08:55.161Z,3232
2023-04-21T10:09:55.152Z,3232
2023-04-21T10:10:55.152Z,3232
2023-04-21T10:11:55.157Z,3424
2023-04-21T10:12:55.193Z,3424
2023-04-21T10:13:55.158Z,3424
2023-04-21T10:14:55.160Z,3424
2023-04-21T10:15:55.164Z,3424
2023-04-21T10:16:55.160Z,3777
2023-04-21T10:17:55.185Z,3777
2023-04-21T10:18:55.158Z,3777
2023-04-21T10:19:55.161Z,3777
2023-04-21T10:20:55.199Z,3777
2023-04-21T10:21:55.163Z,4266
2023-04-21T10:22:55.165Z,4337
2023-04-21T10:23:55.160Z,4532
2023-04-21T10:24:55.165Z,4453
2023-04-21T10:25:55.167Z,4453
2023-04-21T10:26:55.427Z,4453
2023-04-21T10:27:55.168Z,4633
2023-04-21T10:28:55.217Z,4617
2023-04-21T10:29:56.377Z,4907
2023-04-21T10:30:55.166Z,5592
2023-04-21T10:31:55.211Z,5620
2023-04-21T10:32:55.210Z,5143
2023-04-21T10:33:55.173Z,4553
2023-04-21T10:34:55.171Z,4553
2023-04-21T10:35:55.172Z,5456
2023-04-21T10:36:55.172Z,6717
2023-04-21T10:37:55.189Z,5965
2023-04-21T10:38:55.178Z,6461
2023-04-21T10:39:55.184Z,6957
2023-04-21T10:40:55.180Z,6745
2023-04-21T10:41:55.184Z,7060
2023-04-21T10:42:55.177Z,7096
2023-04-21T10:43:55.180Z,7096
2023-04-21T10:44:55.227Z,7099
2023-04-21T10:45:55.182Z,7018
2023-04-21T10:46:55.201Z,7099
2023-04-21T10:47:55.226Z,7058
2023-04-21T10:48:55.185Z,7021
2023-04-21T10:49:55.190Z,7086
2023-04-21T10:50:55.186Z,7102
2023-04-21T10:51:55.185Z,7015
2023-04-21T10:52:55.194Z,6828
2023-04-21T10:53:55.185Z,6615
2023-04-21T10:54:55.187Z,6307
2023-04-21T10:55:55.185Z,6539
2023-04-21T10:56:55.192Z,6554
2023-04-21T10:57:55.187Z,6595
2023-04-21T10:58:55.188Z,6648
2023-04-21T10:59:55.185Z,6691
2023-04-21T11:00:55.294Z,6725
2023-04-21T11:01:55.250Z,6697
2023-04-21T11:02:55.280Z,6713
2023-04-21T11:03:55.244Z,6659
2023-04-21T11:04:55.314Z,6592
2023-04-21T11:05:55.194Z,6509
2023-04-21T11:06:55.190Z,6477
2023-04-21T11:07:55.190Z,6442
2023-04-21T11:08:55.199Z,6396
2023-04-21T11:09:55.187Z,6337
2023-04-21T11:10:55.190Z,6337
2023-04-21T11:11:55.189Z,6372
2023-04-21T11:12:55.188Z,6418
2023-04-21T11:13:55.208Z,6436
2023-04-21T11:14:55.188Z,6458
2023-04-21T11:15:55.197Z,6491
2023-04-21T11:16:55.247Z,6524
2023-04-21T11:17:55.272Z,6577
2023-04-21T11:18:55.188Z,6583
2023-04-21T11:19:55.200Z,6593
2023-04-21T11:20:55.191Z,6616
2023-04-21T11:21:55.193Z,6680
2023-04-21T11:22:55.192Z,6671
2023-04-21T11:23:55.192Z,6653
2023-04-21T11:24:55.188Z,6654
2023-04-21T11:25:55.193Z,6648
2023-04-21T11:26:55.193Z,6634
2023-04-21T11:27:55.206Z,6707
2023-04-21T11:28:55.190Z,6784
2023-04-21T11:29:55.190Z,5483
2023-04-21T11:30:55.291Z,5869
2023-04-21T11:31:55.189Z,6663
2023-04-21T11:32:55.287Z,6653
2023-04-21T11:33:55.189Z,6642
2023-04-21T11:34:55.193Z,6823
2023-04-21T11:35:55.191Z,6377
2023-04-21T11:36:55.202Z,6567
2023-04-21T11:37:55.198Z,5373
2023-04-21T11:38:55.197Z,6282
2023-04-21T11:39:55.195Z,5428
2023-04-21T11:40:55.196Z,4378
2023-04-21T11:41:55.195Z,5064
2023-04-21T11:42:55.196Z,6928
2023-04-21T11:43:55.200Z,6642
2023-04-21T11:44:55.202Z,7094
2023-04-21T11:45:55.230Z,6683
2023-04-21T11:46:55.204Z,6636
2023-04-21T11:47:55.217Z,6944
2023-04-21T11:48:55.238Z,6627
2023-04-21T11:49:55.213Z,6630
2023-04-21T11:50:55.216Z,6645
2023-04-21T11:51:55.216Z,6525
2023-04-21T11:52:55.216Z,6457
2023-04-21T11:53:55.229Z,6412
2023-04-21T11:54:55.220Z,6384
2023-04-21T11:55:55.357Z,6337
2023-04-21T11:56:55.220Z,6400
2023-04-21T11:57:55.220Z,5748
2023-04-21T11:58:55.226Z,5974
2023-04-21T11:59:55.228Z,6317
2023-04-21T12:00:55.293Z,4784
2023-04-21T12:01:55.224Z,4730
2023-04-21T12:02:55.308Z,3803
2023-04-21T12:03:55.597Z,6349
2023-04-21T12:04:55.316Z,6229
2023-04-21T12:05:55.415Z,6242
2023-04-21T12:06:55.226Z,6220
2023-04-21T12:07:55.228Z,6229
2023-04-21T12:08:55.231Z,6219
2023-04-21T12:09:55.253Z,6239
2023-04-21T12:10:55.227Z,6270
2023-04-21T12:11:55.230Z,6326
2023-04-21T12:12:55.236Z,6339
2023-04-21T12:13:55.233Z,6386
2023-04-21T12:14:55.234Z,6436
2023-04-21T12:15:55.290Z,6473
2023-04-21T12:16:55.235Z,6509
2023-04-21T12:17:55.354Z,6521
2023-04-21T12:18:55.238Z,6549
2023-04-21T12:19:55.245Z,6540
2023-04-21T12:20:55.268Z,6506
2023-04-21T12:21:55.238Z,6533
2023-04-21T12:22:55.240Z,6557
2023-04-21T12:23:55.240Z,6651
2023-04-21T12:24:55.244Z,3224
2023-04-21T12:25:55.240Z,5207
2023-04-21T12:26:55.243Z,5643
2023-04-21T12:27:55.242Z,6716
2023-04-21T12:28:55.242Z,5018
2023-04-21T12:29:55.255Z,6005
2023-04-21T12:30:55.256Z,6328
2023-04-21T12:31:55.300Z,6355
2023-04-21T12:32:55.302Z,2753
2023-04-21T12:33:55.280Z,1874
2023-04-21T12:34:55.250Z,1827
2023-04-21T12:35:55.260Z,1823
2023-04-21T12:36:55.304Z,1835
2023-04-21T12:37:55.253Z,1866
2023-04-21T12:38:55.255Z,1888
2023-04-21T12:39:55.262Z,1932
2023-04-21T12:40:55.255Z,1990
2023-04-21T12:41:55.263Z,2064
2023-04-21T12:42:55.261Z,2071
2023-04-21T12:43:55.286Z,2138
2023-04-21T12:44:55.258Z,2199
2023-04-21T12:45:55.282Z,2325
2023-04-21T12:46:55.269Z,4548
2023-04-21T12:47:55.305Z,6418
2023-04-21T12:48:55.264Z,6618
2023-04-21T12:49:55.265Z,6636
2023-04-21T12:50:55.277Z,6628
2023-04-21T12:51:55.272Z,6625
2023-04-21T12:52:55.294Z,6581
2023-04-21T12:53:55.270Z,6477
2023-04-21T12:54:55.292Z,6506
2023-04-21T12:56:03.922Z,5174
2023-04-21T12:56:55.290Z,2418
2023-04-21T12:57:55.277Z,2353
2023-04-21T12:58:55.278Z,2414
2023-04-21T12:59:55.280Z,4658
2023-04-21T13:00:55.344Z,6560
2023-04-21T13:01:55.303Z,4931
2023-04-21T13:02:55.346Z,2369
2023-04-21T13:03:55.368Z,2724
2023-04-21T13:04:55.285Z,2918
2023-04-21T13:05:55.292Z,3701
2023-04-21T13:06:55.287Z,4255
2023-04-21T13:07:55.289Z,6412
2023-04-21T13:08:55.317Z,6394
2023-04-21T13:09:55.292Z,6483
2023-04-21T13:10:55.562Z,6628
2023-04-21T13:11:55.296Z,6644
2023-04-21T13:12:55.296Z,6702
2023-04-21T13:13:55.302Z,5473
2023-04-21T13:14:55.298Z,2631
2023-04-21T13:15:55.322Z,2336
2023-04-21T13:16:55.320Z,2197
2023-04-21T13:17:55.302Z,2187
2023-04-21T13:18:55.309Z,2171
2023-04-21T13:19:55.336Z,2193
2023-04-21T13:20:55.317Z,2263
2023-04-21T13:21:55.302Z,2346
2023-04-21T13:22:55.311Z,2303
2023-04-21T13:23:55.310Z,2256
2023-04-21T13:24:55.336Z,2242
2023-04-21T13:25:55.314Z,2412
2023-04-21T13:26:55.316Z,2285
2023-04-21T13:27:55.317Z,2245
2023-04-21T13:28:55.324Z,2263
2023-04-21T13:29:55.324Z,2226
2023-04-21T13:30:55.337Z,2322
2023-04-21T13:31:55.319Z,2417
2023-04-21T13:32:55.345Z,2791
2023-04-21T13:33:55.354Z,4944
2023-04-21T13:34:55.319Z,6294
2023-04-21T13:35:55.329Z,5810
2023-04-21T13:36:55.326Z,4490
2023-04-21T13:37:55.334Z,4512
2023-04-21T13:38:55.330Z,6397
2023-04-21T13:39:55.329Z,6242
2023-04-21T13:40:55.373Z,5958
2023-04-21T13:41:55.336Z,5828
2023-04-21T13:42:55.337Z,5818
2023-04-21T13:43:55.343Z,5922
2023-04-21T13:44:55.377Z,5868
2023-04-21T13:45:55.373Z,5848
2023-04-21T13:46:55.424Z,5706
2023-04-21T13:47:55.379Z,3831
2023-04-21T13:48:55.334Z,5306